sensor_id;sensor_type;location;lat;lon;timestamp;P1;durP1;ratioP1;P2;durP2;ratioP2
56307;SDS011;42217;50.422;7.210;2023-07-08T00:02:10;767.00;;;717.42;;
56307;SDS011;42217;50.422;7.210;2023-07-08T00:04:37;757.83;;;710.03;;
56307;SDS011;42217;50.422;7.210;2023-07-08T00:07:03;758.00;;;709.65;;
56307;SDS011;42217;50.422;7.210;2023-07-08T00:09:28;785.85;;;735.42;;
56307;SDS011;42217;50.422;7.210;2023-07-08T00:11:55;796.80;;;744.78;;
56307;SDS011;42217;50.422;7.210;2023-07-08T00:14:22;789.15;;;738.45;;
56307;SDS011;42217;50.422;7.210;2023-07-08T00:16:48;775.17;;;725.05;;
56307;SDS011;42217;50.422;7.210;2023-07-08T00:19:15;773.88;;;723.90;;
56307;SDS011;42217;50.422;7.210;2023-07-08T00:21:47;764.80;;;715.83;;
56307;SDS011;42217;50.422;7.210;2023-07-08T00:24:12;729.30;;;683.67;;
56307;SDS011;42217;50.422;7.210;2023-07-08T00:26:38;742.40;;;695.70;;
56307;SDS011;42217;50.422;7.210;2023-07-08T00:29:10;739.75;;;693.17;;
56307;SDS011;42217;50.422;7.210;2023-07-08T00:31:37;718.63;;;673.88;;
56307;SDS011;42217;50.422;7.210;2023-07-08T00:34:02;722.80;;;678.08;;
56307;SDS011;42217;50.422;7.210;2023-07-08T00:36:28;712.70;;;668.80;;
56307;SDS011;42217;50.422;7.210;2023-07-08T00:38:55;717.28;;;672.70;;
56307;SDS011;42217;50.422;7.210;2023-07-08T00:41:23;695.25;;;653.25;;
56307;SDS011;42217;50.422;7.210;2023-07-08T00:43:57;717.35;;;673.28;;
56307;SDS011;42217;50.422;7.210;2023-07-08T00:48:52;684.55;;;643.65;;
56307;SDS011;42217;50.422;7.210;2023-07-08T00:51:22;695.50;;;653.58;;
56307;SDS011;42217;50.422;7.210;2023-07-08T00:53:49;679.30;;;638.53;;
56307;SDS011;42217;50.422;7.210;2023-07-08T00:56:23;681.38;;;641.00;;
56307;SDS011;42217;50.422;7.210;2023-07-08T00:58:59;676.60;;;636.47;;
56307;SDS011;42217;50.422;7.210;2023-07-08T01:01:30;624.08;;;589.25;;
56307;SDS011;42217;50.422;7.210;2023-07-08T01:04:11;626.60;;;590.55;;
56307;SDS011;42217;50.422;7.210;2023-07-08T01:06:50;659.03;;;620.47;;
56307;SDS011;42217;50.422;7.210;2023-07-08T01:09:22;634.45;;;598.08;;
56307;SDS011;42217;50.422;7.210;2023-07-08T01:11:56;591.25;;;558.45;;
56307;SDS011;42217;50.422;7.210;2023-07-08T01:14:26;591.80;;;558.72;;
56307;SDS011;42217;50.422;7.210;2023-07-08T01:16:56;577.05;;;544.83;;
56307;SDS011;42217;50.422;7.210;2023-07-08T01:19:23;580.83;;;548.88;;
56307;SDS011;42217;50.422;7.210;2023-07-08T01:24:26;593.60;;;560.40;;
56307;SDS011;42217;50.422;7.210;2023-07-08T01:26:54;557.88;;;527.75;;
56307;SDS011;42217;50.422;7.210;2023-07-08T01:29:21;561.60;;;531.03;;
56307;SDS011;42217;50.422;7.210;2023-07-08T01:31:47;570.42;;;539.17;;
56307;SDS011;42217;50.422;7.210;2023-07-08T01:34:16;556.83;;;526.28;;
56307;SDS011;42217;50.422;7.210;2023-07-08T01:36:45;556.03;;;525.95;;
56307;SDS011;42217;50.422;7.210;2023-07-08T01:39:16;565.60;;;534.95;;
56307;SDS011;42217;50.422;7.210;2023-07-08T01:41:44;577.63;;;546.05;;
56307;SDS011;42217;50.422;7.210;2023-07-08T01:46:51;586.78;;;553.80;;
56307;SDS011;42217;50.422;7.210;2023-07-08T01:49:19;576.35;;;544.75;;
56307;SDS011;42217;50.422;7.210;2023-07-08T01:51:46;578.55;;;546.75;;
56307;SDS011;42217;50.422;7.210;2023-07-08T01:54:13;587.63;;;554.97;;
56307;SDS011;42217;50.422;7.210;2023-07-08T01:56:38;595.25;;;562.40;;
56307;SDS011;42217;50.422;7.210;2023-07-08T01:59:04;588.65;;;555.95;;
56307;SDS011;42217;50.422;7.210;2023-07-08T02:01:29;557.28;;;526.75;;
56307;SDS011;42217;50.422;7.210;2023-07-08T02:03:55;574.22;;;542.58;;
56307;SDS011;42217;50.422;7.210;2023-07-08T02:06:21;581.13;;;549.08;;
56307;SDS011;42217;50.422;7.210;2023-07-08T02:08:46;576.47;;;544.72;;
56307;SDS011;42217;50.422;7.210;2023-07-08T02:11:12;585.95;;;553.58;;
56307;SDS011;42217;50.422;7.210;2023-07-08T02:13:38;572.45;;;540.97;;
56307;SDS011;42217;50.422;7.210;2023-07-08T02:16:06;559.30;;;528.22;;
56307;SDS011;42217;50.422;7.210;2023-07-08T02:18:32;561.67;;;530.65;;
56307;SDS011;42217;50.422;7.210;2023-07-08T02:20:57;591.80;;;559.25;;
56307;SDS011;42217;50.422;7.210;2023-07-08T02:23:24;600.53;;;567.17;;
56307;SDS011;42217;50.422;7.210;2023-07-08T02:25:54;599.53;;;566.40;;
56307;SDS011;42217;50.422;7.210;2023-07-08T02:28:21;582.33;;;550.28;;
56307;SDS011;42217;50.422;7.210;2023-07-08T02:30:47;590.92;;;557.50;;
56307;SDS011;42217;50.422;7.210;2023-07-08T02:33:13;567.17;;;535.92;;
56307;SDS011;42217;50.422;7.210;2023-07-08T02:35:42;564.85;;;533.92;;
56307;SDS011;42217;50.422;7.210;2023-07-08T02:38:09;591.30;;;558.47;;
56307;SDS011;42217;50.422;7.210;2023-07-08T02:40:34;592.75;;;559.80;;
56307;SDS011;42217;50.422;7.210;2023-07-08T02:43:00;583.35;;;551.33;;
56307;SDS011;42217;50.422;7.210;2023-07-08T02:45:26;580.40;;;548.58;;
56307;SDS011;42217;50.422;7.210;2023-07-08T02:47:51;633.65;;;597.38;;
56307;SDS011;42217;50.422;7.210;2023-07-08T02:50:17;632.88;;;596.38;;
56307;SDS011;42217;50.422;7.210;2023-07-08T02:52:44;652.63;;;614.85;;
56307;SDS011;42217;50.422;7.210;2023-07-08T02:55:09;666.65;;;627.95;;
56307;SDS011;42217;50.422;7.210;2023-07-08T02:57:35;679.08;;;638.95;;
56307;SDS011;42217;50.422;7.210;2023-07-08T03:00:01;655.42;;;616.38;;
56307;SDS011;42217;50.422;7.210;2023-07-08T03:02:29;692.50;;;651.70;;
56307;SDS011;42217;50.422;7.210;2023-07-08T03:04:55;679.78;;;639.45;;
56307;SDS011;42217;50.422;7.210;2023-07-08T03:07:23;668.85;;;629.60;;
56307;SDS011;42217;50.422;7.210;2023-07-08T03:09:50;678.47;;;638.25;;
56307;SDS011;42217;50.422;7.210;2023-07-08T03:12:15;731.10;;;686.45;;
56307;SDS011;42217;50.422;7.210;2023-07-08T03:14:41;720.80;;;677.50;;
56307;SDS011;42217;50.422;7.210;2023-07-08T03:17:07;707.40;;;664.28;;
56307;SDS011;42217;50.422;7.210;2023-07-08T03:19:32;676.65;;;636.63;;
56307;SDS011;42217;50.422;7.210;2023-07-08T03:21:58;734.13;;;689.50;;
56307;SDS011;42217;50.422;7.210;2023-07-08T03:24:24;699.72;;;657.13;;
56307;SDS011;42217;50.422;7.210;2023-07-08T03:26:49;707.53;;;665.15;;
56307;SDS011;42217;50.422;7.210;2023-07-08T03:29:19;701.83;;;659.30;;
56307;SDS011;42217;50.422;7.210;2023-07-08T03:31:45;721.50;;;677.58;;
56307;SDS011;42217;50.422;7.210;2023-07-08T03:34:14;704.38;;;662.05;;
56307;SDS011;42217;50.422;7.210;2023-07-08T03:36:45;721.25;;;677.47;;
56307;SDS011;42217;50.422;7.210;2023-07-08T03:39:20;719.40;;;675.38;;
56307;SDS011;42217;50.422;7.210;2023-07-08T03:41:47;718.90;;;674.47;;
56307;SDS011;42217;50.422;7.210;2023-07-08T03:44:14;726.38;;;680.95;;
56307;SDS011;42217;50.422;7.210;2023-07-08T03:46:43;733.42;;;687.42;;
56307;SDS011;42217;50.422;7.210;2023-07-08T03:49:10;650.75;;;611.45;;
56307;SDS011;42217;50.422;7.210;2023-07-08T03:51:37;665.22;;;625.10;;
56307;SDS011;42217;50.422;7.210;2023-07-08T03:54:05;594.92;;;560.00;;
56307;SDS011;42217;50.422;7.210;2023-07-08T03:56:32;544.60;;;513.95;;
56307;SDS011;42217;50.422;7.210;2023-07-08T03:58:57;512.78;;;484.88;;
56307;SDS011;42217;50.422;7.210;2023-07-08T04:01:24;495.40;;;468.58;;
56307;SDS011;42217;50.422;7.210;2023-07-08T04:03:54;460.70;;;437.00;;
56307;SDS011;42217;50.422;7.210;2023-07-08T04:06:21;459.95;;;435.75;;
56307;SDS011;42217;50.422;7.210;2023-07-08T04:08:47;444.55;;;421.48;;
56307;SDS011;42217;50.422;7.210;2023-07-08T04:11:13;620.33;;;582.58;;
56307;SDS011;42217;50.422;7.210;2023-07-08T04:13:40;484.83;;;458.52;;
56307;SDS011;42217;50.422;7.210;2023-07-08T04:16:06;505.23;;;477.75;;
56307;SDS011;42217;50.422;7.210;2023-07-08T04:18:33;648.38;;;609.30;;
56307;SDS011;42217;50.422;7.210;2023-07-08T04:20:59;620.75;;;583.35;;
56307;SDS011;42217;50.422;7.210;2023-07-08T04:23:25;660.75;;;619.63;;
56307;SDS011;42217;50.422;7.210;2023-07-08T04:25:52;689.35;;;646.28;;
56307;SDS011;42217;50.422;7.210;2023-07-08T04:28:20;578.30;;;544.40;;
56307;SDS011;42217;50.422;7.210;2023-07-08T04:30:47;533.40;;;503.63;;
56307;SDS011;42217;50.422;7.210;2023-07-08T04:33:13;443.08;;;420.50;;
56307;SDS011;42217;50.422;7.210;2023-07-08T04:35:40;447.58;;;425.02;;
56307;SDS011;42217;50.422;7.210;2023-07-08T04:38:11;450.55;;;427.63;;
56307;SDS011;42217;50.422;7.210;2023-07-08T04:40:41;450.00;;;427.15;;
56307;SDS011;42217;50.422;7.210;2023-07-08T04:43:07;429.58;;;407.98;;
56307;SDS011;42217;50.422;7.210;2023-07-08T04:45:35;431.73;;;409.20;;
56307;SDS011;42217;50.422;7.210;2023-07-08T04:48:02;441.15;;;418.83;;
56307;SDS011;42217;50.422;7.210;2023-07-08T04:50:41;445.27;;;422.77;;
56307;SDS011;42217;50.422;7.210;2023-07-08T04:53:08;437.30;;;415.08;;
56307;SDS011;42217;50.422;7.210;2023-07-08T04:55:35;452.45;;;429.67;;
56307;SDS011;42217;50.422;7.210;2023-07-08T04:58:09;441.50;;;418.85;;
56307;SDS011;42217;50.422;7.210;2023-07-08T05:00:35;443.30;;;420.90;;
56307;SDS011;42217;50.422;7.210;2023-07-08T05:03:01;442.48;;;419.92;;
56307;SDS011;42217;50.422;7.210;2023-07-08T05:05:27;422.40;;;400.98;;
56307;SDS011;42217;50.422;7.210;2023-07-08T05:07:53;437.67;;;415.85;;
56307;SDS011;42217;50.422;7.210;2023-07-08T05:10:18;458.73;;;435.40;;
56307;SDS011;42217;50.422;7.210;2023-07-08T05:12:45;462.33;;;438.90;;
56307;SDS011;42217;50.422;7.210;2023-07-08T05:15:11;451.65;;;428.65;;
56307;SDS011;42217;50.422;7.210;2023-07-08T05:17:38;472.95;;;448.67;;
56307;SDS011;42217;50.422;7.210;2023-07-08T05:20:06;438.65;;;416.38;;
56307;SDS011;42217;50.422;7.210;2023-07-08T05:22:33;454.17;;;431.15;;
56307;SDS011;42217;50.422;7.210;2023-07-08T05:24:59;449.63;;;427.00;;
56307;SDS011;42217;50.422;7.210;2023-07-08T05:27:25;458.17;;;434.90;;
56307;SDS011;42217;50.422;7.210;2023-07-08T05:29:51;455.85;;;432.58;;
56307;SDS011;42217;50.422;7.210;2023-07-08T05:32:17;431.00;;;409.30;;
56307;SDS011;42217;50.422;7.210;2023-07-08T05:34:43;450.67;;;427.92;;
56307;SDS011;42217;50.422;7.210;2023-07-08T05:37:09;437.20;;;415.05;;
56307;SDS011;42217;50.422;7.210;2023-07-08T05:39:36;446.38;;;423.73;;
56307;SDS011;42217;50.422;7.210;2023-07-08T05:42:02;448.85;;;426.08;;
56307;SDS011;42217;50.422;7.210;2023-07-08T05:44:27;439.52;;;417.17;;
56307;SDS011;42217;50.422;7.210;2023-07-08T05:46:56;468.65;;;445.05;;
56307;SDS011;42217;50.422;7.210;2023-07-08T05:51:58;435.58;;;413.63;;
56307;SDS011;42217;50.422;7.210;2023-07-08T05:54:40;476.45;;;452.60;;
56307;SDS011;42217;50.422;7.210;2023-07-08T05:57:07;464.95;;;441.45;;
56307;SDS011;42217;50.422;7.210;2023-07-08T05:59:35;459.23;;;435.88;;
56307;SDS011;42217;50.422;7.210;2023-07-08T06:02:04;456.42;;;433.25;;
56307;SDS011;42217;50.422;7.210;2023-07-08T06:04:32;458.30;;;434.63;;
56307;SDS011;42217;50.422;7.210;2023-07-08T06:06:58;446.23;;;423.60;;
56307;SDS011;42217;50.422;7.210;2023-07-08T06:09:24;456.75;;;433.08;;
56307;SDS011;42217;50.422;7.210;2023-07-08T06:11:50;442.55;;;420.25;;
56307;SDS011;42217;50.422;7.210;2023-07-08T06:14:15;448.95;;;425.58;;
56307;SDS011;42217;50.422;7.210;2023-07-08T06:16:41;446.58;;;424.00;;
56307;SDS011;42217;50.422;7.210;2023-07-08T06:19:07;444.27;;;421.42;;
56307;SDS011;42217;50.422;7.210;2023-07-08T06:21:33;434.00;;;411.90;;
56307;SDS011;42217;50.422;7.210;2023-07-08T06:23:58;446.63;;;423.90;;
56307;SDS011;42217;50.422;7.210;2023-07-08T06:26:24;408.40;;;387.58;;
56307;SDS011;42217;50.422;7.210;2023-07-08T06:28:49;384.42;;;365.40;;
56307;SDS011;42217;50.422;7.210;2023-07-08T06:31:15;385.60;;;366.25;;
56307;SDS011;42217;50.422;7.210;2023-07-08T06:33:44;389.58;;;370.15;;
56307;SDS011;42217;50.422;7.210;2023-07-08T06:36:09;372.02;;;353.23;;
56307;SDS011;42217;50.422;7.210;2023-07-08T06:38:35;365.52;;;347.17;;
56307;SDS011;42217;50.422;7.210;2023-07-08T06:41:01;362.48;;;344.40;;
56307;SDS011;42217;50.422;7.210;2023-07-08T06:43:26;323.40;;;307.63;;
56307;SDS011;42217;50.422;7.210;2023-07-08T06:45:52;334.67;;;318.35;;
56307;SDS011;42217;50.422;7.210;2023-07-08T06:48:17;334.50;;;317.70;;
56307;SDS011;42217;50.422;7.210;2023-07-08T06:50:46;331.98;;;315.33;;
56307;SDS011;42217;50.422;7.210;2023-07-08T06:53:13;313.48;;;298.02;;
56307;SDS011;42217;50.422;7.210;2023-07-08T06:55:39;322.65;;;306.20;;
56307;SDS011;42217;50.422;7.210;2023-07-08T06:58:05;325.23;;;308.48;;
56307;SDS011;42217;50.422;7.210;2023-07-08T07:00:30;341.60;;;324.13;;
56307;SDS011;42217;50.422;7.210;2023-07-08T07:02:56;312.58;;;296.75;;
56307;SDS011;42217;50.422;7.210;2023-07-08T07:05:22;308.00;;;291.85;;
56307;SDS011;42217;50.422;7.210;2023-07-08T07:07:47;297.88;;;283.17;;
56307;SDS011;42217;50.422;7.210;2023-07-08T07:10:13;272.83;;;259.35;;
56307;SDS011;42217;50.422;7.210;2023-07-08T07:12:39;304.48;;;289.27;;
56307;SDS011;42217;50.422;7.210;2023-07-08T07:15:05;288.95;;;274.75;;
56307;SDS011;42217;50.422;7.210;2023-07-08T07:17:31;307.33;;;291.70;;
56307;SDS011;42217;50.422;7.210;2023-07-08T07:19:56;300.90;;;285.45;;
56307;SDS011;42217;50.422;7.210;2023-07-08T07:22:22;293.85;;;279.20;;
56307;SDS011;42217;50.422;7.210;2023-07-08T07:24:48;269.83;;;256.35;;
56307;SDS011;42217;50.422;7.210;2023-07-08T07:27:14;259.88;;;246.52;;
56307;SDS011;42217;50.422;7.210;2023-07-08T07:29:44;241.50;;;229.68;;
56307;SDS011;42217;50.422;7.210;2023-07-08T07:32:11;209.13;;;198.65;;
56307;SDS011;42217;50.422;7.210;2023-07-08T07:34:38;213.02;;;202.77;;
56307;SDS011;42217;50.422;7.210;2023-07-08T07:37:05;217.88;;;207.40;;
56307;SDS011;42217;50.422;7.210;2023-07-08T07:39:32;183.75;;;174.48;;
56307;SDS011;42217;50.422;7.210;2023-07-08T07:41:58;192.52;;;182.68;;
56307;SDS011;42217;50.422;7.210;2023-07-08T07:44:24;187.00;;;177.90;;
56307;SDS011;42217;50.422;7.210;2023-07-08T07:46:52;172.55;;;164.00;;
56307;SDS011;42217;50.422;7.210;2023-07-08T07:49:18;162.25;;;154.30;;
56307;SDS011;42217;50.422;7.210;2023-07-08T07:51:44;161.10;;;153.25;;
56307;SDS011;42217;50.422;7.210;2023-07-08T07:54:09;178.50;;;169.40;;
56307;SDS011;42217;50.422;7.210;2023-07-08T07:56:35;167.18;;;158.30;;
56307;SDS011;42217;50.422;7.210;2023-07-08T07:59:01;187.82;;;178.20;;
56307;SDS011;42217;50.422;7.210;2023-07-08T08:01:27;163.93;;;155.57;;
56307;SDS011;42217;50.422;7.210;2023-07-08T08:03:53;157.82;;;150.05;;
56307;SDS011;42217;50.422;7.210;2023-07-08T08:06:19;151.60;;;144.07;;
56307;SDS011;42217;50.422;7.210;2023-07-08T08:08:45;158.55;;;150.90;;
56307;SDS011;42217;50.422;7.210;2023-07-08T08:11:11;155.88;;;148.10;;
56307;SDS011;42217;50.422;7.210;2023-07-08T08:13:37;153.10;;;145.43;;
56307;SDS011;42217;50.422;7.210;2023-07-08T08:16:03;143.18;;;136.15;;
56307;SDS011;42217;50.422;7.210;2023-07-08T08:18:28;158.65;;;150.77;;
56307;SDS011;42217;50.422;7.210;2023-07-08T08:20:54;146.10;;;138.90;;
56307;SDS011;42217;50.422;7.210;2023-07-08T08:23:20;146.13;;;138.95;;
56307;SDS011;42217;50.422;7.210;2023-07-08T08:25:47;147.07;;;139.60;;
56307;SDS011;42217;50.422;7.210;2023-07-08T08:28:14;175.07;;;166.40;;
56307;SDS011;42217;50.422;7.210;2023-07-08T08:30:40;142.73;;;135.68;;
56307;SDS011;42217;50.422;7.210;2023-07-08T08:33:06;139.65;;;132.82;;
56307;SDS011;42217;50.422;7.210;2023-07-08T08:35:32;132.65;;;125.45;;
56307;SDS011;42217;50.422;7.210;2023-07-08T08:37:57;131.63;;;125.10;;
56307;SDS011;42217;50.422;7.210;2023-07-08T08:40:23;160.15;;;150.85;;
56307;SDS011;42217;50.422;7.210;2023-07-08T08:45:26;125.18;;;118.95;;
56307;SDS011;42217;50.422;7.210;2023-07-08T08:47:57;121.03;;;114.85;;
56307;SDS011;42217;50.422;7.210;2023-07-08T08:50:43;132.40;;;125.55;;
56307;SDS011;42217;50.422;7.210;2023-07-08T08:53:15;149.15;;;141.57;;
56307;SDS011;42217;50.422;7.210;2023-07-08T08:55:42;115.57;;;110.03;;
56307;SDS011;42217;50.422;7.210;2023-07-08T08:58:26;112.07;;;106.15;;
56307;SDS011;42217;50.422;7.210;2023-07-08T09:01:01;101.68;;;96.53;;
56307;SDS011;42217;50.422;7.210;2023-07-08T09:03:43;105.60;;;100.03;;
56307;SDS011;42217;50.422;7.210;2023-07-08T09:06:15;107.93;;;102.10;;
56307;SDS011;42217;50.422;7.210;2023-07-08T09:08:44;114.47;;;108.18;;
56307;SDS011;42217;50.422;7.210;2023-07-08T09:14:16;134.18;;;127.30;;
56307;SDS011;42217;50.422;7.210;2023-07-08T09:19:33;110.65;;;105.07;;
56307;SDS011;42217;50.422;7.210;2023-07-08T09:24:48;109.85;;;103.78;;
56307;SDS011;42217;50.422;7.210;2023-07-08T09:27:21;102.18;;;96.63;;
56307;SDS011;42217;50.422;7.210;2023-07-08T09:29:47;95.22;;;90.47;;
56307;SDS011;42217;50.422;7.210;2023-07-08T09:32:20;95.93;;;91.10;;
56307;SDS011;42217;50.422;7.210;2023-07-08T09:34:51;93.97;;;89.05;;
56307;SDS011;42217;50.422;7.210;2023-07-08T09:37:25;89.75;;;84.88;;
56307;SDS011;42217;50.422;7.210;2023-07-08T09:39:57;83.45;;;78.88;;
56307;SDS011;42217;50.422;7.210;2023-07-08T09:42:29;96.95;;;91.63;;
56307;SDS011;42217;50.422;7.210;2023-07-08T09:44:58;94.45;;;88.93;;
56307;SDS011;42217;50.422;7.210;2023-07-08T09:47:27;89.43;;;84.63;;
56307;SDS011;42217;50.422;7.210;2023-07-08T09:49:58;96.05;;;91.05;;
56307;SDS011;42217;50.422;7.210;2023-07-08T09:52:25;94.18;;;89.25;;
56307;SDS011;42217;50.422;7.210;2023-07-08T09:54:53;85.70;;;81.22;;
56307;SDS011;42217;50.422;7.210;2023-07-08T09:57:31;88.68;;;84.15;;
56307;SDS011;42217;50.422;7.210;2023-07-08T09:59:59;98.07;;;93.13;;
56307;SDS011;42217;50.422;7.210;2023-07-08T10:05:14;94.85;;;89.90;;
56307;SDS011;42217;50.422;7.210;2023-07-08T10:07:43;124.65;;;118.45;;
56307;SDS011;42217;50.422;7.210;2023-07-08T10:10:12;94.88;;;89.95;;
56307;SDS011;42217;50.422;7.210;2023-07-08T10:12:42;109.53;;;103.83;;
56307;SDS011;42217;50.422;7.210;2023-07-08T10:15:21;118.30;;;112.47;;
56307;SDS011;42217;50.422;7.210;2023-07-08T10:17:52;115.30;;;109.30;;
56307;SDS011;42217;50.422;7.210;2023-07-08T10:20:18;95.25;;;90.53;;
56307;SDS011;42217;50.422;7.210;2023-07-08T10:25:43;98.28;;;93.15;;
56307;SDS011;42217;50.422;7.210;2023-07-08T10:28:24;97.18;;;92.18;;
56307;SDS011;42217;50.422;7.210;2023-07-08T10:31:31;90.18;;;85.47;;
56307;SDS011;42217;50.422;7.210;2023-07-08T10:34:31;97.75;;;92.63;;
56307;SDS011;42217;50.422;7.210;2023-07-08T11:08:44;105.30;;;99.85;;
56307;SDS011;42217;50.422;7.210;2023-07-08T11:11:11;106.13;;;100.63;;
56307;SDS011;42217;50.422;7.210;2023-07-08T11:14:13;104.60;;;98.65;;
56307;SDS011;42217;50.422;7.210;2023-07-08T11:16:48;100.85;;;95.88;;
56307;SDS011;42217;50.422;7.210;2023-07-08T11:19:33;106.00;;;100.25;;
56307;SDS011;42217;50.422;7.210;2023-07-08T11:22:03;100.43;;;93.95;;
56307;SDS011;42217;50.422;7.210;2023-07-08T11:24:37;100.70;;;95.22;;
56307;SDS011;42217;50.422;7.210;2023-07-08T11:29:37;99.88;;;94.70;;
56307;SDS011;42217;50.422;7.210;2023-07-08T11:32:11;98.97;;;94.00;;
56307;SDS011;42217;50.422;7.210;2023-07-08T11:34:41;94.40;;;89.18;;
56307;SDS011;42217;50.422;7.210;2023-07-08T11:37:09;93.95;;;88.55;;
56307;SDS011;42217;50.422;7.210;2023-07-08T11:39:41;92.30;;;87.05;;
56307;SDS011;42217;50.422;7.210;2023-07-08T11:44:58;110.57;;;105.07;;
56307;SDS011;42217;50.422;7.210;2023-07-08T11:47:35;99.05;;;93.80;;
56307;SDS011;42217;50.422;7.210;2023-07-08T11:53:01;106.35;;;101.00;;
56307;SDS011;42217;50.422;7.210;2023-07-08T11:58:29;99.78;;;94.63;;
56307;SDS011;42217;50.422;7.210;2023-07-08T12:01:22;96.68;;;91.80;;
56307;SDS011;42217;50.422;7.210;2023-07-08T12:04:51;95.15;;;90.00;;
56307;SDS011;42217;50.422;7.210;2023-07-08T12:06:48;94.00;;;88.80;;
56307;SDS011;42217;50.422;7.210;2023-07-08T12:09:26;99.43;;;93.85;;
56307;SDS011;42217;50.422;7.210;2023-07-08T12:11:59;100.32;;;95.07;;
56307;SDS011;42217;50.422;7.210;2023-07-08T12:14:27;96.43;;;91.47;;
56307;SDS011;42217;50.422;7.210;2023-07-08T12:16:55;94.22;;;89.22;;
56307;SDS011;42217;50.422;7.210;2023-07-08T12:19:21;96.53;;;90.97;;
56307;SDS011;42217;50.422;7.210;2023-07-08T12:21:50;94.95;;;89.70;;
56307;SDS011;42217;50.422;7.210;2023-07-08T12:24:17;90.45;;;85.95;;
56307;SDS011;42217;50.422;7.210;2023-07-08T12:26:43;92.43;;;87.03;;
56307;SDS011;42217;50.422;7.210;2023-07-08T12:29:11;88.40;;;83.60;;
56307;SDS011;42217;50.422;7.210;2023-07-08T12:31:38;88.88;;;84.38;;
56307;SDS011;42217;50.422;7.210;2023-07-08T12:34:12;96.18;;;91.03;;
56307;SDS011;42217;50.422;7.210;2023-07-08T12:36:40;92.90;;;88.00;;
56307;SDS011;42217;50.422;7.210;2023-07-08T12:39:08;98.93;;;93.93;;
56307;SDS011;42217;50.422;7.210;2023-07-08T12:41:40;92.85;;;88.30;;
56307;SDS011;42217;50.422;7.210;2023-07-08T12:46:44;97.57;;;92.43;;
56307;SDS011;42217;50.422;7.210;2023-07-08T12:49:11;101.50;;;96.40;;
56307;SDS011;42217;50.422;7.210;2023-07-08T12:51:41;91.20;;;86.35;;
56307;SDS011;42217;50.422;7.210;2023-07-08T12:54:10;90.03;;;84.93;;
56307;SDS011;42217;50.422;7.210;2023-07-08T12:56:37;101.38;;;96.07;;
56307;SDS011;42217;50.422;7.210;2023-07-08T12:59:04;92.80;;;88.15;;
56307;SDS011;42217;50.422;7.210;2023-07-08T13:01:32;98.22;;;91.63;;
56307;SDS011;42217;50.422;7.210;2023-07-08T13:04:01;95.68;;;90.43;;
56307;SDS011;42217;50.422;7.210;2023-07-08T13:06:30;85.15;;;80.55;;
56307;SDS011;42217;50.422;7.210;2023-07-08T13:11:58;74.95;;;71.00;;
56307;SDS011;42217;50.422;7.210;2023-07-08T13:14:29;67.22;;;63.33;;
56307;SDS011;42217;50.422;7.210;2023-07-08T13:16:55;60.08;;;56.45;;
56307;SDS011;42217;50.422;7.210;2023-07-08T13:19:21;50.65;;;47.63;;
56307;SDS011;42217;50.422;7.210;2023-07-08T13:21:48;53.42;;;50.20;;
56307;SDS011;42217;50.422;7.210;2023-07-08T13:24:14;48.47;;;45.50;;
56307;SDS011;42217;50.422;7.210;2023-07-08T13:26:44;49.58;;;46.67;;
56307;SDS011;42217;50.422;7.210;2023-07-08T13:29:14;47.80;;;44.58;;
56307;SDS011;42217;50.422;7.210;2023-07-08T13:31:46;42.97;;;39.72;;
56307;SDS011;42217;50.422;7.210;2023-07-08T13:34:15;38.80;;;36.22;;
56307;SDS011;42217;50.422;7.210;2023-07-08T13:36:44;43.35;;;40.92;;
56307;SDS011;42217;50.422;7.210;2023-07-08T13:39:19;41.80;;;38.43;;
56307;SDS011;42217;50.422;7.210;2023-07-08T13:42:06;45.13;;;42.17;;
56307;SDS011;42217;50.422;7.210;2023-07-08T13:44:33;39.72;;;36.97;;
56307;SDS011;42217;50.422;7.210;2023-07-08T13:46:59;37.15;;;35.10;;
56307;SDS011;42217;50.422;7.210;2023-07-08T13:49:30;32.13;;;30.13;;
56307;SDS011;42217;50.422;7.210;2023-07-08T13:52:20;31.65;;;29.65;;
56307;SDS011;42217;50.422;7.210;2023-07-08T13:54:51;32.67;;;30.83;;
56307;SDS011;42217;50.422;7.210;2023-07-08T13:57:21;39.22;;;36.40;;
56307;SDS011;42217;50.422;7.210;2023-07-08T13:59:48;47.97;;;44.88;;
56307;SDS011;42217;50.422;7.210;2023-07-08T14:02:19;54.40;;;51.53;;
56307;SDS011;42217;50.422;7.210;2023-07-08T14:04:47;65.78;;;62.30;;
56307;SDS011;42217;50.422;7.210;2023-07-08T14:07:18;72.90;;;69.25;;
56307;SDS011;42217;50.422;7.210;2023-07-08T14:09:45;58.28;;;55.10;;
56307;SDS011;42217;50.422;7.210;2023-07-08T14:12:11;43.40;;;40.47;;
56307;SDS011;42217;50.422;7.210;2023-07-08T14:14:37;36.25;;;33.80;;
56307;SDS011;42217;50.422;7.210;2023-07-08T14:17:02;32.97;;;30.67;;
56307;SDS011;42217;50.422;7.210;2023-07-08T14:19:32;36.63;;;34.38;;
56307;SDS011;42217;50.422;7.210;2023-07-08T14:22:05;41.30;;;39.22;;
56307;SDS011;42217;50.422;7.210;2023-07-08T14:24:38;44.43;;;41.83;;
56307;SDS011;42217;50.422;7.210;2023-07-08T14:27:05;48.78;;;46.00;;
56307;SDS011;42217;50.422;7.210;2023-07-08T14:29:42;46.92;;;44.28;;
56307;SDS011;42217;50.422;7.210;2023-07-08T14:32:14;39.67;;;37.33;;
56307;SDS011;42217;50.422;7.210;2023-07-08T14:34:47;44.78;;;42.40;;
56307;SDS011;42217;50.422;7.210;2023-07-08T14:37:17;45.78;;;42.90;;
56307;SDS011;42217;50.422;7.210;2023-07-08T14:39:43;54.08;;;51.13;;
56307;SDS011;42217;50.422;7.210;2023-07-08T14:42:11;63.95;;;60.30;;
56307;SDS011;42217;50.422;7.210;2023-07-08T14:44:37;67.25;;;63.15;;
56307;SDS011;42217;50.422;7.210;2023-07-08T14:47:07;70.95;;;66.78;;
56307;SDS011;42217;50.422;7.210;2023-07-08T14:49:35;70.53;;;66.97;;
56307;SDS011;42217;50.422;7.210;2023-07-08T14:52:01;73.57;;;69.50;;
56307;SDS011;42217;50.422;7.210;2023-07-08T14:54:26;66.78;;;63.15;;
56307;SDS011;42217;50.422;7.210;2023-07-08T14:56:52;64.00;;;60.63;;
56307;SDS011;42217;50.422;7.210;2023-07-08T14:59:21;61.22;;;57.85;;
56307;SDS011;42217;50.422;7.210;2023-07-08T15:01:49;64.93;;;61.40;;
56307;SDS011;42217;50.422;7.210;2023-07-08T15:04:17;64.72;;;61.38;;
56307;SDS011;42217;50.422;7.210;2023-07-08T15:06:43;65.63;;;62.03;;
56307;SDS011;42217;50.422;7.210;2023-07-08T15:09:11;54.08;;;51.03;;
56307;SDS011;42217;50.422;7.210;2023-07-08T15:11:37;54.15;;;50.95;;
56307;SDS011;42217;50.422;7.210;2023-07-08T15:14:05;53.92;;;50.38;;
56307;SDS011;42217;50.422;7.210;2023-07-08T15:16:43;53.42;;;50.25;;
56307;SDS011;42217;50.422;7.210;2023-07-08T15:19:10;35.90;;;33.80;;
56307;SDS011;42217;50.422;7.210;2023-07-08T15:21:37;34.55;;;32.42;;
56307;SDS011;42217;50.422;7.210;2023-07-08T15:24:09;33.20;;;31.15;;
56307;SDS011;42217;50.422;7.210;2023-07-08T15:26:37;29.15;;;27.52;;
56307;SDS011;42217;50.422;7.210;2023-07-08T15:29:04;29.67;;;27.80;;